sensor_id;sensor_type;location;lat;lon;timestamp;temperature;humidity
65406;DHT22;52016;51.228;-2.322;2022-08-19T00:00:00;21.10;72.10
65406;DHT22;52016;51.228;-2.322;2022-08-19T00:03:44;21.00;72.20
65406;DHT22;52016;51.228;-2.322;2022-08-19T00:07:26;21.00;72.30
65406;DHT22;52016;51.228;-2.322;2022-08-19T00:11:18;21.00;72.40
65406;DHT22;52016;51.228;-2.322;2022-08-19T00:15:09;20.90;73.50
65406;DHT22;52016;51.228;-2.322;2022-08-19T00:19:05;20.90;72.60
65406;DHT22;52016;51.228;-2.322;2022-08-19T00:22:49;20.90;72.60
65406;DHT22;52016;51.228;-2.322;2022-08-19T00:26:31;20.90;72.50
65406;DHT22;52016;51.228;-2.322;2022-08-19T00:30:16;20.90;72.60
65406;DHT22;52016;51.228;-2.322;2022-08-19T00:33:58;20.90;72.70
65406;DHT22;52016;51.228;-2.322;2022-08-19T00:37:42;20.90;72.80
65406;DHT22;52016;51.228;-2.322;2022-08-19T00:41:33;20.90;72.90
65406;DHT22;52016;51.228;-2.322;2022-08-19T00:45:22;20.90;73.80
65406;DHT22;52016;51.228;-2.322;2022-08-19T00:52:57;20.90;73.30
65406;DHT22;52016;51.228;-2.322;2022-08-19T00:56:42;20.90;72.80
65406;DHT22;52016;51.228;-2.322;2022-08-19T01:00:28;20.90;72.90
65406;DHT22;52016;51.228;-2.322;2022-08-19T01:04:11;20.90;72.70
65406;DHT22;52016;51.228;-2.322;2022-08-19T01:07:54;20.90;72.80
65406;DHT22;52016;51.228;-2.322;2022-08-19T01:11:41;20.80;72.80
65406;DHT22;52016;51.228;-2.322;2022-08-19T01:15:40;20.80;72.80
65406;DHT22;52016;51.228;-2.322;2022-08-19T01:19:34;20.80;73.80
65406;DHT22;52016;51.228;-2.322;2022-08-19T01:23:25;20.70;73.20
65406;DHT22;52016;51.228;-2.322;2022-08-19T01:27:23;20.60;72.70
65406;DHT22;52016;51.228;-2.322;2022-08-19T01:31:07;20.50;73.00
65406;DHT22;52016;51.228;-2.322;2022-08-19T01:35:07;20.50;73.10
65406;DHT22;52016;51.228;-2.322;2022-08-19T01:38:49;20.50;73.10
65406;DHT22;52016;51.228;-2.322;2022-08-19T01:42:31;20.50;73.20
65406;DHT22;52016;51.228;-2.322;2022-08-19T01:46:13;20.40;73.20
65406;DHT22;52016;51.228;-2.322;2022-08-19T01:49:55;20.40;73.30
65406;DHT22;52016;51.228;-2.322;2022-08-19T01:53:38;20.50;73.10
65406;DHT22;52016;51.228;-2.322;2022-08-19T01:57:19;20.40;73.20
65406;DHT22;52016;51.228;-2.322;2022-08-19T02:01:02;20.30;73.50
65406;DHT22;52016;51.228;-2.322;2022-08-19T02:04:47;20.10;73.80
65406;DHT22;52016;51.228;-2.322;2022-08-19T02:08:30;20.00;74.30
65406;DHT22;52016;51.228;-2.322;2022-08-19T02:12:12;19.90;74.50
65406;DHT22;52016;51.228;-2.322;2022-08-19T02:16:01;19.80;74.70
65406;DHT22;52016;51.228;-2.322;2022-08-19T02:19:45;19.80;74.80
65406;DHT22;52016;51.228;-2.322;2022-08-19T02:23:26;19.70;74.90
65406;DHT22;52016;51.228;-2.322;2022-08-19T02:27:08;19.80;74.80
65406;DHT22;52016;51.228;-2.322;2022-08-19T02:30:52;19.70;74.80
65406;DHT22;52016;51.228;-2.322;2022-08-19T02:34:34;19.70;74.70
65406;DHT22;52016;51.228;-2.322;2022-08-19T02:38:16;19.70;74.80
65406;DHT22;52016;51.228;-2.322;2022-08-19T02:42:08;19.60;74.80
65406;DHT22;52016;51.228;-2.322;2022-08-19T02:45:50;19.70;74.80
65406;DHT22;52016;51.228;-2.322;2022-08-19T02:49:35;19.70;74.90
65406;DHT22;52016;51.228;-2.322;2022-08-19T02:53:19;19.70;74.70
65406;DHT22;52016;51.228;-2.322;2022-08-19T02:57:04;19.80;74.70
65406;DHT22;52016;51.228;-2.322;2022-08-19T03:00:50;19.80;74.60
65406;DHT22;52016;51.228;-2.322;2022-08-19T03:04:32;19.80;74.50
65406;DHT22;52016;51.228;-2.322;2022-08-19T03:08:14;19.80;74.80
65406;DHT22;52016;51.228;-2.322;2022-08-19T03:11:56;19.80;74.50
65406;DHT22;52016;51.228;-2.322;2022-08-19T03:15:45;19.80;74.60
65406;DHT22;52016;51.228;-2.322;2022-08-19T03:19:29;19.70;74.60
65406;DHT22;52016;51.228;-2.322;2022-08-19T03:23:16;19.80;74.50
65406;DHT22;52016;51.228;-2.322;2022-08-19T03:27:01;19.70;74.40
65406;DHT22;52016;51.228;-2.322;2022-08-19T03:30:56;19.70;74.30
65406;DHT22;52016;51.228;-2.322;2022-08-19T03:34:38;19.70;75.00
65406;DHT22;52016;51.228;-2.322;2022-08-19T03:38:21;19.70;74.20
65406;DHT22;52016;51.228;-2.322;2022-08-19T03:42:06;19.70;74.10
65406;DHT22;52016;51.228;-2.322;2022-08-19T03:46:11;19.70;74.00
65406;DHT22;52016;51.228;-2.322;2022-08-19T03:49:53;19.60;73.90
65406;DHT22;52016;51.228;-2.322;2022-08-19T03:53:35;19.70;73.80
65406;DHT22;52016;51.228;-2.322;2022-08-19T03:57:17;19.60;73.70
65406;DHT22;52016;51.228;-2.322;2022-08-19T04:00:59;19.60;73.70
65406;DHT22;52016;51.228;-2.322;2022-08-19T04:04:50;19.60;73.60
65406;DHT22;52016;51.228;-2.322;2022-08-19T04:08:34;19.60;73.70
65406;DHT22;52016;51.228;-2.322;2022-08-19T04:12:18;19.60;73.60
65406;DHT22;52016;51.228;-2.322;2022-08-19T04:16:02;19.70;73.50
65406;DHT22;52016;51.228;-2.322;2022-08-19T04:19:45;19.70;73.40
65406;DHT22;52016;51.228;-2.322;2022-08-19T04:23:29;19.60;73.30
65406;DHT22;52016;51.228;-2.322;2022-08-19T04:27:16;19.70;73.30
65406;DHT22;52016;51.228;-2.322;2022-08-19T04:31:01;19.60;73.30
65406;DHT22;52016;51.228;-2.322;2022-08-19T04:34:43;19.60;73.20
65406;DHT22;52016;51.228;-2.322;2022-08-19T04:38:45;19.50;73.10
65406;DHT22;52016;51.228;-2.322;2022-08-19T04:42:26;19.40;73.20
65406;DHT22;52016;51.228;-2.322;2022-08-19T04:46:20;19.40;73.10
65406;DHT22;52016;51.228;-2.322;2022-08-19T04:50:22;19.40;73.00
65406;DHT22;52016;51.228;-2.322;2022-08-19T04:54:04;19.40;72.80
65406;DHT22;52016;51.228;-2.322;2022-08-19T04:57:48;19.40;72.70
65406;DHT22;52016;51.228;-2.322;2022-08-19T05:01:33;19.40;72.50
65406;DHT22;52016;51.228;-2.322;2022-08-19T05:05:15;19.40;72.30
65406;DHT22;52016;51.228;-2.322;2022-08-19T05:08:57;19.30;72.10
65406;DHT22;52016;51.228;-2.322;2022-08-19T05:12:40;19.30;72.00
65406;DHT22;52016;51.228;-2.322;2022-08-19T05:16:23;19.20;72.10
65406;DHT22;52016;51.228;-2.322;2022-08-19T05:20:06;19.20;72.10
65406;DHT22;52016;51.228;-2.322;2022-08-19T05:24:07;19.10;72.10
65406;DHT22;52016;51.228;-2.322;2022-08-19T05:27:52;19.10;72.10
65406;DHT22;52016;51.228;-2.322;2022-08-19T05:31:34;19.10;72.00
65406;DHT22;52016;51.228;-2.322;2022-08-19T05:35:22;19.10;72.00
65406;DHT22;52016;51.228;-2.322;2022-08-19T05:39:10;19.10;71.90
65406;DHT22;52016;51.228;-2.322;2022-08-19T05:42:52;19.10;71.90
65406;DHT22;52016;51.228;-2.322;2022-08-19T05:46:37;19.00;71.80
65406;DHT22;52016;51.228;-2.322;2022-08-19T05:50:21;19.00;71.90
65406;DHT22;52016;51.228;-2.322;2022-08-19T05:54:05;18.90;71.90
65406;DHT22;52016;51.228;-2.322;2022-08-19T05:57:49;18.90;72.00
65406;DHT22;52016;51.228;-2.322;2022-08-19T06:01:31;19.00;71.90
65406;DHT22;52016;51.228;-2.322;2022-08-19T06:05:13;18.90;71.90
65406;DHT22;52016;51.228;-2.322;2022-08-19T06:08:57;18.90;72.00
65406;DHT22;52016;51.228;-2.322;2022-08-19T06:12:39;18.90;71.90
65406;DHT22;52016;51.228;-2.322;2022-08-19T06:16:24;18.90;71.90
65406;DHT22;52016;51.228;-2.322;2022-08-19T06:20:08;18.90;72.00
65406;DHT22;52016;51.228;-2.322;2022-08-19T06:23:53;18.80;71.80
65406;DHT22;52016;51.228;-2.322;2022-08-19T06:27:40;18.80;71.70
65406;DHT22;52016;51.228;-2.322;2022-08-19T06:31:45;18.80;71.70
65406;DHT22;52016;51.228;-2.322;2022-08-19T06:35:27;18.70;71.70
65406;DHT22;52016;51.228;-2.322;2022-08-19T06:39:15;18.70;71.60
65406;DHT22;52016;51.228;-2.322;2022-08-19T06:42:59;18.70;71.30
65406;DHT22;52016;51.228;-2.322;2022-08-19T06:46:48;18.60;71.20
65406;DHT22;52016;51.228;-2.322;2022-08-19T06:50:38;18.60;71.10
65406;DHT22;52016;51.228;-2.322;2022-08-19T06:54:23;18.60;70.90
65406;DHT22;52016;51.228;-2.322;2022-08-19T06:58:11;18.60;70.00
65406;DHT22;52016;51.228;-2.322;2022-08-19T07:01:55;18.60;70.50
65406;DHT22;52016;51.228;-2.322;2022-08-19T07:05:47;18.60;70.40
65406;DHT22;52016;51.228;-2.322;2022-08-19T07:09:29;18.60;70.30
65406;DHT22;52016;51.228;-2.322;2022-08-19T07:13:15;18.60;70.10
65406;DHT22;52016;51.228;-2.322;2022-08-19T07:16:58;18.60;69.80
65406;DHT22;52016;51.228;-2.322;2022-08-19T07:20:43;18.60;69.70
65406;DHT22;52016;51.228;-2.322;2022-08-19T07:24:26;18.60;69.60
65406;DHT22;52016;51.228;-2.322;2022-08-19T07:28:16;18.60;69.20
65406;DHT22;52016;51.228;-2.322;2022-08-19T07:32:05;18.60;68.60
65406;DHT22;52016;51.228;-2.322;2022-08-19T07:35:52;18.70;68.20
65406;DHT22;52016;51.228;-2.322;2022-08-19T07:39:35;18.60;67.70
65406;DHT22;52016;51.228;-2.322;2022-08-19T07:43:20;18.60;67.20
65406;DHT22;52016;51.228;-2.322;2022-08-19T07:47:15;18.70;66.50
65406;DHT22;52016;51.228;-2.322;2022-08-19T07:51:21;18.70;66.10
65406;DHT22;52016;51.228;-2.322;2022-08-19T07:55:21;18.80;65.50
65406;DHT22;52016;51.228;-2.322;2022-08-19T07:59:24;18.90;64.70
65406;DHT22;52016;51.228;-2.322;2022-08-19T08:03:08;18.90;64.20
65406;DHT22;52016;51.228;-2.322;2022-08-19T08:06:50;19.00;63.80
65406;DHT22;52016;51.228;-2.322;2022-08-19T08:10:50;19.00;63.40
65406;DHT22;52016;51.228;-2.322;2022-08-19T08:14:44;19.00;62.80
65406;DHT22;52016;51.228;-2.322;2022-08-19T08:18:36;19.10;62.40
65406;DHT22;52016;51.228;-2.322;2022-08-19T08:22:24;19.20;62.30
65406;DHT22;52016;51.228;-2.322;2022-08-19T08:26:27;19.30;62.00
65406;DHT22;52016;51.228;-2.322;2022-08-19T08:30:16;19.30;61.80
65406;DHT22;52016;51.228;-2.322;2022-08-19T08:34:02;19.40;61.50
65406;DHT22;52016;51.228;-2.322;2022-08-19T08:37:45;19.50;61.60
65406;DHT22;52016;51.228;-2.322;2022-08-19T08:41:34;19.60;61.40
65406;DHT22;52016;51.228;-2.322;2022-08-19T08:45:20;19.60;60.80
65406;DHT22;52016;51.228;-2.322;2022-08-19T08:49:33;19.60;60.30
65406;DHT22;52016;51.228;-2.322;2022-08-19T08:53:19;19.70;58.50
65406;DHT22;52016;51.228;-2.322;2022-08-19T08:57:17;19.70;59.50
65406;DHT22;52016;51.228;-2.322;2022-08-19T09:01:01;19.80;58.80
65406;DHT22;52016;51.228;-2.322;2022-08-19T09:04:45;19.80;59.00
65406;DHT22;52016;51.228;-2.322;2022-08-19T09:12:21;19.90;57.20
65406;DHT22;52016;51.228;-2.322;2022-08-19T09:16:14;19.90;58.20
65406;DHT22;52016;51.228;-2.322;2022-08-19T09:20:16;19.90;56.70
65406;DHT22;52016;51.228;-2.322;2022-08-19T09:23:59;20.00;55.90
65406;DHT22;52016;51.228;-2.322;2022-08-19T09:27:44;20.10;57.50
65406;DHT22;52016;51.228;-2.322;2022-08-19T09:31:28;20.20;57.20
65406;DHT22;52016;51.228;-2.322;2022-08-19T09:35:12;20.20;56.40
65406;DHT22;52016;51.228;-2.322;2022-08-19T09:38:57;20.20;56.00
65406;DHT22;52016;51.228;-2.322;2022-08-19T09:42:40;20.30;55.90
65406;DHT22;52016;51.228;-2.322;2022-08-19T09:46:30;20.30;55.40
65406;DHT22;52016;51.228;-2.322;2022-08-19T09:50:13;20.40;55.20
65406;DHT22;52016;51.228;-2.322;2022-08-19T09:54:00;20.30;55.00
65406;DHT22;52016;51.228;-2.322;2022-08-19T09:57:45;20.40;55.00
65406;DHT22;52016;51.228;-2.322;2022-08-19T10:01:29;20.60;54.50
65406;DHT22;52016;51.228;-2.322;2022-08-19T10:05:11;20.70;54.20
65406;DHT22;52016;51.228;-2.322;2022-08-19T10:09:18;20.70;54.00
65406;DHT22;52016;51.228;-2.322;2022-08-19T10:13:16;20.90;53.20
65406;DHT22;52016;51.228;-2.322;2022-08-19T10:16:58;21.10;53.70
65406;DHT22;52016;51.228;-2.322;2022-08-19T10:21:12;21.50;53.30
65406;DHT22;52016;51.228;-2.322;2022-08-19T10:24:56;21.70;51.40
65406;DHT22;52016;51.228;-2.322;2022-08-19T10:28:38;21.80;52.10
65406;DHT22;52016;51.228;-2.322;2022-08-19T10:32:23;21.80;52.20
65406;DHT22;52016;51.228;-2.322;2022-08-19T10:36:17;21.80;51.70
65406;DHT22;52016;51.228;-2.322;2022-08-19T10:39:59;21.90;51.80
65406;DHT22;52016;51.228;-2.322;2022-08-19T10:43:43;22.30;51.50
65406;DHT22;52016;51.228;-2.322;2022-08-19T10:47:26;22.50;51.40
65406;DHT22;52016;51.228;-2.322;2022-08-19T10:51:12;22.60;51.20
65406;DHT22;52016;51.228;-2.322;2022-08-19T10:55:14;22.70;51.20
65406;DHT22;52016;51.228;-2.322;2022-08-19T10:59:16;22.80;51.20
65406;DHT22;52016;51.228;-2.322;2022-08-19T11:03:01;22.80;50.80
65406;DHT22;52016;51.228;-2.322;2022-08-19T11:06:44;22.60;50.60
65406;DHT22;52016;51.228;-2.322;2022-08-19T11:10:28;22.40;50.60
65406;DHT22;52016;51.228;-2.322;2022-08-19T11:14:13;22.20;51.00
65406;DHT22;52016;51.228;-2.322;2022-08-19T11:18:03;22.10;51.10
65406;DHT22;52016;51.228;-2.322;2022-08-19T11:21:47;22.10;51.40
65406;DHT22;52016;51.228;-2.322;2022-08-19T11:25:31;22.30;51.80
65406;DHT22;52016;51.228;-2.322;2022-08-19T11:29:16;22.40;51.70
65406;DHT22;52016;51.228;-2.322;2022-08-19T11:33:00;22.30;51.50
65406;DHT22;52016;51.228;-2.322;2022-08-19T11:36:44;22.40;52.00
65406;DHT22;52016;51.228;-2.322;2022-08-19T11:40:28;22.50;52.00
65406;DHT22;52016;51.228;-2.322;2022-08-19T11:44:11;22.60;51.60
65406;DHT22;52016;51.228;-2.322;2022-08-19T11:47:57;22.70;51.80
65406;DHT22;52016;51.228;-2.322;2022-08-19T11:51:39;22.80;51.70
65406;DHT22;52016;51.228;-2.322;2022-08-19T11:55:22;23.00;51.80
65406;DHT22;52016;51.228;-2.322;2022-08-19T11:59:05;23.40;51.50
65406;DHT22;52016;51.228;-2.322;2022-08-19T12:02:49;23.80;51.40
65406;DHT22;52016;51.228;-2.322;2022-08-19T12:06:33;24.10;50.40
65406;DHT22;52016;51.228;-2.322;2022-08-19T12:10:18;24.10;49.90
65406;DHT22;52016;51.228;-2.322;2022-08-19T12:14:04;24.10;48.80
65406;DHT22;52016;51.228;-2.322;2022-08-19T12:17:46;24.10;48.60
65406;DHT22;52016;51.228;-2.322;2022-08-19T12:21:28;24.20;48.60
65406;DHT22;52016;51.228;-2.322;2022-08-19T12:25:13;24.20;48.20
65406;DHT22;52016;51.228;-2.322;2022-08-19T12:28:55;24.40;48.00
65406;DHT22;52016;51.228;-2.322;2022-08-19T12:32:38;24.70;46.80
65406;DHT22;52016;51.228;-2.322;2022-08-19T12:36:21;25.00;47.50
65406;DHT22;52016;51.228;-2.322;2022-08-19T12:40:07;25.00;46.90
65406;DHT22;52016;51.228;-2.322;2022-08-19T12:43:50;25.10;46.40
65406;DHT22;52016;51.228;-2.322;2022-08-19T12:47:39;25.10;46.10
65406;DHT22;52016;51.228;-2.322;2022-08-19T12:51:23;25.10;44.90
65406;DHT22;52016;51.228;-2.322;2022-08-19T12:55:09;25.10;45.40
65406;DHT22;52016;51.228;-2.322;2022-08-19T12:58:55;25.10;45.80
65406;DHT22;52016;51.228;-2.322;2022-08-19T13:02:38;25.20;46.00
65406;DHT22;52016;51.228;-2.322;2022-08-19T13:06:23;25.10;45.20
65406;DHT22;52016;51.228;-2.322;2022-08-19T13:10:09;25.10;45.30
65406;DHT22;52016;51.228;-2.322;2022-08-19T13:13:53;25.40;44.30
65406;DHT22;52016;51.228;-2.322;2022-08-19T13:17:37;25.60;44.50
65406;DHT22;52016;51.228;-2.322;2022-08-19T13:21:26;25.80;43.70
65406;DHT22;52016;51.228;-2.322;2022-08-19T13:25:12;25.80;42.60
65406;DHT22;52016;51.228;-2.322;2022-08-19T13:28:54;26.10;43.30
65406;DHT22;52016;51.228;-2.322;2022-08-19T13:32:56;26.60;43.20
65406;DHT22;52016;51.228;-2.322;2022-08-19T13:36:56;27.00;42.90
65406;DHT22;52016;51.228;-2.322;2022-08-19T13:40:40;27.40;43.20
65406;DHT22;52016;51.228;-2.322;2022-08-19T13:44:22;27.80;42.50
65406;DHT22;52016;51.228;-2.322;2022-08-19T13:48:06;27.90;42.80
65406;DHT22;52016;51.228;-2.322;2022-08-19T13:51:50;28.00;42.60
65406;DHT22;52016;51.228;-2.322;2022-08-19T13:55:31;28.30;42.50
65406;DHT22;52016;51.228;-2.322;2022-08-19T13:59:14;28.30;42.00
65406;DHT22;52016;51.228;-2.322;2022-08-19T14:02:56;28.00;41.70
65406;DHT22;52016;51.228;-2.322;2022-08-19T14:06:39;27.90;42.20
65406;DHT22;52016;51.228;-2.322;2022-08-19T14:10:24;27.90;41.40
65406;DHT22;52016;51.228;-2.322;2022-08-19T14:14:06;27.80;41.30
65406;DHT22;52016;51.228;-2.322;2022-08-19T14:17:50;28.10;41.70
65406;DHT22;52016;51.228;-2.322;2022-08-19T14:21:32;28.20;41.40
65406;DHT22;52016;51.228;-2.322;2022-08-19T14:25:25;27.90;40.20
65406;DHT22;52016;51.228;-2.322;2022-08-19T14:29:07;27.90;41.40
65406;DHT22;52016;51.228;-2.322;2022-08-19T14:32:50;28.00;41.00
65406;DHT22;52016;51.228;-2.322;2022-08-19T14:36:32;28.00;40.50
65406;DHT22;52016;51.228;-2.322;2022-08-19T14:40:19;28.00;39.80
65406;DHT22;52016;51.228;-2.322;2022-08-19T14:44:03;28.20;40.10
65406;DHT22;52016;51.228;-2.322;2022-08-19T14:47:48;28.20;40.00
65406;DHT22;52016;51.228;-2.322;2022-08-19T14:51:30;28.50;39.90
65406;DHT22;52016;51.228;-2.322;2022-08-19T14:55:16;28.90;39.80
65406;DHT22;52016;51.228;-2.322;2022-08-19T14:58:58;29.10;38.60
65406;DHT22;52016;51.228;-2.322;2022-08-19T15:02:43;29.20;38.60
65406;DHT22;52016;51.228;-2.322;2022-08-19T15:06:27;29.40;37.90
65406;DHT22;52016;51.228;-2.322;2022-08-19T15:10:12;29.40;37.80
65406;DHT22;52016;51.228;-2.322;2022-08-19T15:13:58;29.50;36.70
65406;DHT22;52016;51.228;-2.322;2022-08-19T15:17:41;29.50;36.80
65406;DHT22;52016;51.228;-2.322;2022-08-19T15:21:28;29.40;36.90
65406;DHT22;52016;51.228;-2.322;2022-08-19T15:25:14;29.40;36.50
65406;DHT22;52016;51.228;-2.322;2022-08-19T15:28:57;29.40;37.00
65406;DHT22;52016;51.228;-2.322;2022-08-19T15:32:39;29.70;36.70
65406;DHT22;52016;51.228;-2.322;2022-08-19T15:36:23;29.60;36.50
65406;DHT22;52016;51.228;-2.322;2022-08-19T15:40:07;29.60;36.10
65406;DHT22;52016;51.228;-2.322;2022-08-19T15:44:19;29.20;36.50
65406;DHT22;52016;51.228;-2.322;2022-08-19T15:48:03;28.70;36.10
65406;DHT22;52016;51.228;-2.322;2022-08-19T15:51:48;28.60;36.80
65406;DHT22;52016;51.228;-2.322;2022-08-19T15:55:40;28.40;36.80
65406;DHT22;52016;51.228;-2.322;2022-08-19T15:59:24;28.60;36.40
65406;DHT22;52016;51.228;-2.322;2022-08-19T16:03:28;28.90;36.70
65406;DHT22;52016;51.228;-2.322;2022-08-19T16:07:30;29.40;36.30
65406;DHT22;52016;51.228;-2.322;2022-08-19T16:11:27;29.40;36.30
65406;DHT22;52016;51.228;-2.322;2022-08-19T16:15:12;29.40;36.40
65406;DHT22;52016;51.228;-2.322;2022-08-19T16:18:58;29.50;36.30
65406;DHT22;52016;51.228;-2.322;2022-08-19T16:22:41;29.80;36.10
65406;DHT22;52016;51.228;-2.322;2022-08-19T16:26:22;30.10;35.90
65406;DHT22;52016;51.228;-2.322;2022-08-19T16:30:12;30.20;35.80
65406;DHT22;52016;51.228;-2.322;2022-08-19T16:33:56;30.10;35.30
65406;DHT22;52016;51.228;-2.322;2022-08-19T16:37:38;29.90;35.50
65406;DHT22;52016;51.228;-2.322;2022-08-19T16:41:20;30.00;35.60
65406;DHT22;52016;51.228;-2.322;2022-08-19T16:45:05;30.10;35.70
65406;DHT22;52016;51.228;-2.322;2022-08-19T16:48:50;29.90;36.20
65406;DHT22;52016;51.228;-2.322;2022-08-19T16:52:33;30.30;36.20
65406;DHT22;52016;51.228;-2.322;2022-08-19T16:56:17;30.60;36.60
65406;DHT22;52016;51.228;-2.322;2022-08-19T17:00:00;30.90;36.20
65406;DHT22;52016;51.228;-2.322;2022-08-19T17:03:52;31.10;36.10
65406;DHT22;52016;51.228;-2.322;2022-08-19T17:07:33;30.90;35.60
65406;DHT22;52016;51.228;-2.322;2022-08-19T17:11:16;30.90;35.70
65406;DHT22;52016;51.228;-2.322;2022-08-19T17:15:00;30.80;35.60
65406;DHT22;52016;51.228;-2.322;2022-08-19T17:18:47;31.00;35.30
65406;DHT22;52016;51.228;-2.322;2022-08-19T17:22:33;31.00;34.80
65406;DHT22;52016;51.228;-2.322;2022-08-19T17:26:17;31.00;34.70
65406;DHT22;52016;51.228;-2.322;2022-08-19T17:30:05;31.10;34.60
65406;DHT22;52016;51.228;-2.322;2022-08-19T17:33:50;31.00;33.80
65406;DHT22;52016;51.228;-2.322;2022-08-19T17:37:32;30.90;34.50
65406;DHT22;52016;51.228;-2.322;2022-08-19T17:41:16;30.50;34.30
65406;DHT22;52016;51.228;-2.322;2022-08-19T17:44:58;30.50;34.40
65406;DHT22;52016;51.228;-2.322;2022-08-19T17:48:42;30.70;34.30
65406;DHT22;52016;51.228;-2.322;2022-08-19T17:52:28;30.50;33.90
65406;DHT22;52016;51.228;-2.322;2022-08-19T17:56:12;30.30;34.10
65406;DHT22;52016;51.228;-2.322;2022-08-19T17:59:56;30.40;34.00
65406;DHT22;52016;51.228;-2.322;2022-08-19T18:03:42;30.30;33.90
65406;DHT22;52016;51.228;-2.322;2022-08-19T18:07:24;30.20;34.30
65406;DHT22;52016;51.228;-2.322;2022-08-19T18:11:07;30.10;34.60
65406;DHT22;52016;51.228;-2.322;2022-08-19T18:14:49;29.90;34.90
65406;DHT22;52016;51.228;-2.322;2022-08-19T18:18:31;29.70;35.10
65406;DHT22;52016;51.228;-2.322;2022-08-19T18:22:29;29.50;35.40
65406;DHT22;52016;51.228;-2.322;2022-08-19T18:26:13;29.20;35.50
65406;DHT22;52016;51.228;-2.322;2022-08-19T18:29:55;29.00;35.90
65406;DHT22;52016;51.228;-2.322;2022-08-19T18:33:40;28.90;36.00
65406;DHT22;52016;51.228;-2.322;2022-08-19T18:37:25;28.50;36.40
65406;DHT22;52016;51.228;-2.322;2022-08-19T18:41:09;27.70;37.10
65406;DHT22;52016;51.228;-2.322;2022-08-19T18:45:10;26.80;37.90
65406;DHT22;52016;51.228;-2.322;2022-08-19T18:49:16;25.80;38.70
65406;DHT22;52016;51.228;-2.322;2022-08-19T18:52:58;25.00;39.90
65406;DHT22;52016;51.228;-2.322;2022-08-19T18:56:41;24.50;40.20
65406;DHT22;52016;51.228;-2.322;2022-08-19T19:00:31;24.20;40.60
65406;DHT22;52016;51.228;-2.322;2022-08-19T19:04:13;23.90;41.20
65406;DHT22;52016;51.228;-2.322;2022-08-19T19:07:57;23.60;41.50
65406;DHT22;52016;51.228;-2.322;2022-08-19T19:11:44;23.30;42.70
65406;DHT22;52016;51.228;-2.322;2022-08-19T19:15:26;23.10;42.70
65406;DHT22;52016;51.228;-2.322;2022-08-19T19:19:14;23.00;42.80
65406;DHT22;52016;51.228;-2.322;2022-08-19T19:23:23;22.90;43.60
65406;DHT22;52016;51.228;-2.322;2022-08-19T19:27:06;22.70;45.80
65406;DHT22;52016;51.228;-2.322;2022-08-19T19:30:48;22.40;45.50
65406;DHT22;52016;51.228;-2.322;2022-08-19T19:34:30;22.20;45.80
65406;DHT22;52016;51.228;-2.322;2022-08-19T19:38:14;22.10;46.10
65406;DHT22;52016;51.228;-2.322;2022-08-19T19:41:59;22.00;46.60
65406;DHT22;52016;51.228;-2.322;2022-08-19T19:45:49;21.90;46.80
65406;DHT22;52016;51.228;-2.322;2022-08-19T19:49:32;21.80;47.60
65406;DHT22;52016;51.228;-2.322;2022-08-19T19:53:17;21.90;46.70
65406;DHT22;52016;51.228;-2.322;2022-08-19T19:56:59;21.80;46.90
65406;DHT22;52016;51.228;-2.322;2022-08-19T20:00:43;21.80;46.60
65406;DHT22;52016;51.228;-2.322;2022-08-19T20:04:28;21.80;46.60
65406;DHT22;52016;51.228;-2.322;2022-08-19T20:08:10;21.80;47.20
65406;DHT22;52016;51.228;-2.322;2022-08-19T20:12:11;21.70;46.30
65406;DHT22;52016;51.228;-2.322;2022-08-19T20:15:55;21.70;46.30
65406;DHT22;52016;51.228;-2.322;2022-08-19T20:19:39;21.80;46.40
65406;DHT22;52016;51.228;-2.322;2022-08-19T20:23:25;21.70;46.50
65406;DHT22;52016;51.228;-2.322;2022-08-19T20:27:11;21.60;46.70
65406;DHT22;52016;51.228;-2.322;2022-08-19T20:30:53;21.60;47.10
65406;DHT22;52016;51.228;-2.322;2022-08-19T20:34:50;21.50;47.00
65406;DHT22;52016;51.228;-2.322;2022-08-19T20:38:32;21.40;47.90
65406;DHT22;52016;51.228;-2.322;2022-08-19T20:42:25;21.30;47.60
65406;DHT22;52016;51.228;-2.322;2022-08-19T20:46:12;21.20;48.90
65406;DHT22;52016;51.228;-2.322;2022-08-19T20:49:54;21.00;47.80
65406;DHT22;52016;51.228;-2.322;2022-08-19T20:53:39;21.00;48.10
65406;DHT22;52016;51.228;-2.322;2022-08-19T20:57:22;20.90;48.00
65406;DHT22;52016;51.228;-2.322;2022-08-19T21:01:05;20.90;48.20
65406;DHT22;52016;51.228;-2.322;2022-08-19T21:04:50;20.90;48.30
65406;DHT22;52016;51.228;-2.322;2022-08-19T21:08:31;20.90;48.50
65406;DHT22;52016;51.228;-2.322;2022-08-19T21:12:13;20.80;48.70
65406;DHT22;52016;51.228;-2.322;2022-08-19T21:15:55;20.70;48.90
65406;DHT22;52016;51.228;-2.322;2022-08-19T21:19:42;20.70;49.10
65406;DHT22;52016;51.228;-2.322;2022-08-19T21:23:26;20.60;49.70
65406;DHT22;52016;51.228;-2.322;2022-08-19T21:27:17;20.60;49.60
65406;DHT22;52016;51.228;-2.322;2022-08-19T21:31:01;20.50;49.70
65406;DHT22;52016;51.228;-2.322;2022-08-19T21:34:44;20.40;49.90
65406;DHT22;52016;51.228;-2.322;2022-08-19T21:38:27;20.40;50.10
65406;DHT22;52016;51.228;-2.322;2022-08-19T21:42:15;20.30;50.40
65406;DHT22;52016;51.228;-2.322;2022-08-19T21:46:01;20.20;51.10
65406;DHT22;52016;51.228;-2.322;2022-08-19T21:49:43;20.20;51.10
65406;DHT22;52016;51.228;-2.322;2022-08-19T21:53:25;20.10;51.10
65406;DHT22;52016;51.228;-2.322;2022-08-19T21:57:13;20.00;51.30
65406;DHT22;52016;51.228;-2.322;2022-08-19T22:00:58;19.90;51.40
65406;DHT22;52016;51.228;-2.322;2022-08-19T22:04:50;19.90;51.80
65406;DHT22;52016;51.228;-2.322;2022-08-19T22:08:32;19.80;51.90
65406;DHT22;52016;51.228;-2.322;2022-08-19T22:12:24;19.80;51.90
65406;DHT22;52016;51.228;-2.322;2022-08-19T22:16:07;19.80;53.10
65406;DHT22;52016;51.228;-2.322;2022-08-19T22:19:50;19.70;52.20
65406;DHT22;52016;51.228;-2.322;2022-08-19T22:23:33;19.70;52.20
65406;DHT22;52016;51.228;-2.322;2022-08-19T22:27:15;19.70;52.20
65406;DHT22;52016;51.228;-2.322;2022-08-19T22:30:57;19.60;52.30
65406;DHT22;52016;51.228;-2.322;2022-08-19T22:34:40;19.70;52.40
65406;DHT22;52016;51.228;-2.322;2022-08-19T22:38:22;19.60;52.40
65406;DHT22;52016;51.228;-2.322;2022-08-19T22:42:10;19.70;52.40
65406;DHT22;52016;51.228;-2.322;2022-08-19T22:45:56;19.70;52.30
65406;DHT22;52016;51.228;-2.322;2022-08-19T22:50:14;19.80;52.40
65406;DHT22;52016;51.228;-2.322;2022-08-19T22:53:56;19.80;52.40
65406;DHT22;52016;51.228;-2.322;2022-08-19T22:57:47;19.80;52.50
65406;DHT22;52016;51.228;-2.322;2022-08-19T23:01:29;19.70;53.90
65406;DHT22;52016;51.228;-2.322;2022-08-19T23:05:11;19.50;52.80
65406;DHT22;52016;51.228;-2.322;2022-08-19T23:08:59;19.40;53.00
65406;DHT22;52016;51.228;-2.322;2022-08-19T23:12:44;19.40;53.60
65406;DHT22;52016;51.228;-2.322;2022-08-19T23:16:27;19.30;53.30
65406;DHT22;52016;51.228;-2.322;2022-08-19T23:20:12;19.20;53.40
65406;DHT22;52016;51.228;-2.322;2022-08-19T23:23:57;19.10;53.70
65406;DHT22;52016;51.228;-2.322;2022-08-19T23:27:39;19.00;53.90
65406;DHT22;52016;51.228;-2.322;2022-08-19T23:31:39;18.90;53.50